X  Tanca Dades meteorològiques de l'aviació METAR     LZPP Piešťany Airport
Temperatura
29°C Temperatura
17°C Rosada
48% Humitat



Vent
4 M/S
9 MPH
14 KM/H
8 NUS



160°
SSE
Condicions actuals

Sense núvols Sense núvols
Pressió 1016.93 (hPa) - 30.03 (inHg)
Visibilitat 6 (milla) - 9.7 (km)
Aeroport
Codi aeroport LZPP

Ubicació: Piešťany Airport
Distància: 31 (km)

Metar:
LZPP 181300Z 16008KT 130V200 CAVOK 29/17 Q1017

Temps: 18-06-2024 15:00 CEST